Time;durP1;ratioP1;P1;durP2;ratioP2;P2;SDS_P1;SDS_P2;PMS_P1;PMS_P2;Temp;Humidity;BMP_temperature;BMP_pressure;BME280_temperature;BME280_humidity;BME280_pressure;Samples;Min_cycle;Max_cycle;Signal;HPM_P1;HPM_P2
2021/10/07 00:00:30;;;;;;;6.20;3.50;;;9.90;61.20;;;;;;5033208;28;20039;-50
2021/10/07 00:02:56;;;;;;;3.60;3.00;;;9.80;61.20;;;;;;5033838;28;20116;-50
2021/10/07 00:05:22;;;;;;;4.75;3.45;;;9.80;61.30;;;;;;5032713;28;20104;-50
2021/10/07 00:07:47;;;;;;;5.07;3.15;;;9.80;61.50;;;;;;5033964;28;20032;-50
2021/10/07 00:10:13;;;;;;;4.65;3.20;;;9.80;61.70;;;;;;5033392;28;20079;-50
2021/10/07 00:12:39;;;;;;;3.80;3.42;;;9.80;61.80;;;;;;5033663;28;20029;-50
2021/10/07 00:15:06;;;;;;;5.85;3.10;;;9.80;61.70;;;;;;5033706;28;20088;-51
2021/10/07 00:17:32;;;;;;;7.60;3.15;;;9.80;61.50;;;;;;5032413;28;20033;-53
2021/10/07 00:19:58;;;;;;;3.42;2.97;;;9.80;61.30;;;;;;5033221;28;20033;-50
2021/10/07 00:22:23;;;;;;;4.25;2.90;;;9.80;61.30;;;;;;5020603;28;20040;-50
2021/10/07 00:24:49;;;;;;;3.63;2.97;;;9.80;61.40;;;;;;5020211;28;20096;-54
2021/10/07 00:27:15;;;;;;;3.47;2.90;;;9.80;61.70;;;;;;5033218;28;20021;-50
2021/10/07 00:29:49;;;;;;;3.13;2.70;;;9.80;61.50;;;;;;5033305;28;20036;-51
2021/10/07 00:32:19;;;;;;;3.58;2.88;;;9.80;61.60;;;;;;5033525;28;20022;-51
2021/10/07 00:39:02;;;;;;;4.70;2.80;;;9.80;61.90;;;;;;5033686;28;20028;-50
2021/10/07 00:40:15;;;;;;;4.43;2.88;;;9.80;61.70;;;;;;5018787;28;20042;-50
2021/10/07 00:42:41;;;;;;;3.83;3.03;;;9.80;61.40;;;;;;5026923;28;20045;-50
2021/10/07 00:45:07;;;;;;;3.92;3.03;;;9.80;61.50;;;;;;5032590;28;20029;-50
2021/10/07 00:47:33;;;;;;;4.97;2.92;;;9.80;60.90;;;;;;5032068;28;20104;-50
2021/10/07 00:49:59;;;;;;;3.20;2.90;;;9.70;60.90;;;;;;5032552;28;20484;-50
2021/10/07 00:52:25;;;;;;;3.33;2.80;;;9.70;61.00;;;;;;5033189;28;20029;-50
2021/10/07 00:54:54;;;;;;;3.88;3.00;;;9.70;61.00;;;;;;5032537;28;20034;-51
2021/10/07 00:57:21;;;;;;;3.70;2.92;;;9.70;61.80;;;;;;5013725;28;20117;-50
2021/10/07 00:59:48;;;;;;;3.47;2.92;;;9.60;61.00;;;;;;5032321;28;20053;-50
2021/10/07 01:02:14;;;;;;;4.55;2.97;;;9.60;61.50;;;;;;5032480;28;20033;-50
2021/10/07 01:04:40;;;;;;;4.05;3.15;;;9.60;61.30;;;;;;5033324;28;20025;-51
2021/10/07 01:07:07;;;;;;;5.00;3.15;;;9.60;61.20;;;;;;5032337;28;20076;-50
2021/10/07 01:09:33;;;;;;;4.60;3.45;;;9.60;61.20;;;;;;5032980;28;20116;-51
2021/10/07 01:11:59;;;;;;;5.88;3.20;;;9.60;61.20;;;;;;5032365;28;20105;-50
2021/10/07 01:14:46;;;;;;;3.70;2.90;;;9.50;61.40;;;;;;5019091;28;20058;-50
2021/10/07 01:17:14;;;;;;;4.07;3.15;;;9.50;61.50;;;;;;5030158;28;20038;-50
2021/10/07 01:19:47;;;;;;;5.53;3.25;;;9.40;61.60;;;;;;5033148;28;20037;-50
2021/10/07 01:22:15;;;;;;;5.60;3.30;;;9.40;61.80;;;;;;5032440;28;20037;-51
2021/10/07 01:24:41;;;;;;;3.85;3.10;;;9.40;61.90;;;;;;5032632;28;20026;-50
2021/10/07 01:27:08;;;;;;;4.25;3.38;;;9.40;62.00;;;;;;5032427;28;20072;-50
2021/10/07 01:29:34;;;;;;;4.07;3.08;;;9.40;62.00;;;;;;5022455;28;20465;-50
2021/10/07 01:32:01;;;;;;;3.97;3.10;;;9.30;62.00;;;;;;5032816;28;20031;-50
2021/10/07 01:34:29;;;;;;;5.38;4.00;;;9.30;62.10;;;;;;5032104;28;20025;-50
2021/10/07 01:36:55;;;;;;;5.25;3.28;;;9.30;62.10;;;;;;5032989;28;20021;-50
2021/10/07 01:39:21;;;;;;;7.13;3.20;;;9.30;61.90;;;;;;5043697;28;20045;-50
2021/10/07 01:41:48;;;;;;;6.15;3.17;;;9.20;62.00;;;;;;5052864;28;20099;-50
2021/10/07 01:44:16;;;;;;;4.00;3.30;;;9.20;62.20;;;;;;5050468;28;20040;-54
2021/10/07 01:46:42;;;;;;;5.00;3.42;;;9.20;62.30;;;;;;5040905;28;20043;-50
2021/10/07 01:49:08;;;;;;;4.55;3.45;;;9.20;62.60;;;;;;5031072;28;20112;-51
2021/10/07 01:51:34;;;;;;;4.00;3.30;;;9.20;62.60;;;;;;5032385;28;20100;-50
2021/10/07 01:54:01;;;;;;;5.40;3.25;;;9.20;62.60;;;;;;5035721;28;20377;-50
2021/10/07 01:56:26;;;;;;;4.07;3.10;;;9.20;62.60;;;;;;5046464;28;20032;-50
2021/10/07 01:58:52;;;;;;;5.50;2.97;;;9.20;62.40;;;;;;5054370;28;20029;-50
2021/10/07 02:01:18;;;;;;;4.25;3.22;;;9.10;62.20;;;;;;5044186;28;20060;-50
2021/10/07 02:03:43;;;;;;;3.42;2.97;;;9.20;62.10;;;;;;5036162;28;20033;-50
2021/10/07 02:06:09;;;;;;;3.95;3.35;;;9.10;62.20;;;;;;5035984;28;20039;-50
2021/10/07 02:08:35;;;;;;;5.55;3.20;;;9.10;62.10;;;;;;5036242;28;20091;-50
2021/10/07 02:11:00;;;;;;;3.42;2.78;;;9.10;62.30;;;;;;5036024;28;20378;-51
2021/10/07 02:13:27;;;;;;;3.47;2.80;;;9.10;62.10;;;;;;5035999;28;20584;-50
2021/10/07 02:15:53;;;;;;;4.90;2.70;;;9.10;62.30;;;;;;5035741;28;20384;-52
2021/10/07 02:18:18;;;;;;;4.28;2.90;;;9.10;62.20;;;;;;5035996;28;20064;-50
2021/10/07 02:20:44;;;;;;;5.10;3.00;;;9.10;62.10;;;;;;5055766;28;20025;-52
2021/10/07 02:23:10;;;;;;;3.60;2.70;;;9.10;62.20;;;;;;5031962;28;20503;-51
2021/10/07 02:25:36;;;;;;;3.88;3.35;;;9.10;62.10;;;;;;5035856;28;20034;-52
2021/10/07 02:28:01;;;;;;;3.95;2.97;;;9.10;62.10;;;;;;5035675;28;20457;-53
2021/10/07 02:30:27;;;;;;;4.50;2.90;;;9.10;62.00;;;;;;5035582;28;20113;-50
2021/10/07 02:32:53;;;;;;;3.10;2.60;;;9.00;61.90;;;;;;5035556;28;20037;-50
2021/10/07 02:35:19;;;;;;;3.97;3.15;;;9.00;62.10;;;;;;5034533;28;20025;-50
2021/10/07 02:37:45;;;;;;;5.20;3.10;;;9.00;62.10;;;;;;5043667;28;20033;-50
2021/10/07 02:40:13;;;;;;;4.18;3.20;;;8.90;61.80;;;;;;5034016;28;20048;-50
2021/10/07 02:42:39;;;;;;;3.30;2.83;;;8.90;62.00;;;;;;5035322;28;20525;-50
2021/10/07 02:45:07;;;;;;;3.88;2.90;;;8.90;62.00;;;;;;5035025;28;20030;-50
2021/10/07 02:47:33;;;;;;;3.78;3.10;;;8.90;62.10;;;;;;5035110;28;20443;-50
2021/10/07 02:49:59;;;;;;;3.85;2.85;;;8.80;62.10;;;;;;5035314;28;20084;-50
2021/10/07 02:52:25;;;;;;;5.90;3.33;;;8.80;62.10;;;;;;5020074;28;20026;-52
2021/10/07 02:54:51;;;;;;;3.10;2.72;;;8.80;62.20;;;;;;5035151;28;20125;-51
2021/10/07 02:57:16;;;;;;;3.60;2.95;;;8.80;62.40;;;;;;5035296;28;20021;-50
2021/10/07 02:59:43;;;;;;;4.15;3.20;;;8.80;62.10;;;;;;5034068;28;20087;-50
2021/10/07 03:02:09;;;;;;;3.70;2.80;;;8.80;62.00;;;;;;5034971;28;20071;-50
2021/10/07 03:04:34;;;;;;;3.33;2.67;;;8.80;62.10;;;;;;5034977;28;20029;-50
2021/10/07 03:07:00;;;;;;;4.70;2.80;;;8.80;62.00;;;;;;5034418;28;20026;-52
2021/10/07 03:09:26;;;;;;;3.95;3.00;;;8.80;61.90;;;;;;5022903;28;20104;-50
2021/10/07 03:11:52;;;;;;;4.28;3.20;;;8.80;61.90;;;;;;5026706;28;20029;-50
2021/10/07 03:14:17;;;;;;;3.97;3.00;;;8.70;61.80;;;;;;5034518;28;20032;-51
2021/10/07 03:16:43;;;;;;;4.97;3.00;;;8.70;61.80;;;;;;5034358;28;20116;-50
2021/10/07 03:19:09;;;;;;;4.38;3.05;;;8.70;62.00;;;;;;5035025;28;20029;-50
2021/10/07 03:21:37;;;;;;;3.28;2.80;;;8.70;62.20;;;;;;5034432;28;20083;-50
2021/10/07 03:24:04;;;;;;;3.45;2.95;;;8.60;62.40;;;;;;5030908;28;20516;-50
2021/10/07 03:26:29;;;;;;;3.00;2.70;;;8.60;62.60;;;;;;5013364;28;20364;-51
2021/10/07 03:28:55;;;;;;;3.75;2.70;;;8.60;62.70;;;;;;5013510;28;20529;-53
2021/10/07 03:31:21;;;;;;;3.95;2.90;;;8.60;62.50;;;;;;5017034;28;20148;-50
2021/10/07 03:33:46;;;;;;;3.25;2.72;;;8.60;62.20;;;;;;5034691;28;20072;-51
2021/10/07 03:36:12;;;;;;;3.88;2.80;;;8.60;62.10;;;;;;5034431;28;20033;-50
2021/10/07 03:38:38;;;;;;;3.63;2.85;;;8.60;62.10;;;;;;5034120;28;20046;-51
2021/10/07 03:41:03;;;;;;;3.70;3.05;;;8.50;62.00;;;;;;5021980;28;20437;-50
2021/10/07 03:43:30;;;;;;;6.20;3.00;;;8.50;62.20;;;;;;5014486;28;20037;-50
2021/10/07 03:45:56;;;;;;;3.60;2.60;;;8.50;62.20;;;;;;5032436;28;20043;-50
2021/10/07 03:48:21;;;;;;;4.53;2.95;;;8.50;62.50;;;;;;5034426;28;20104;-50
2021/10/07 03:50:47;;;;;;;3.33;2.80;;;8.50;62.50;;;;;;5030391;28;20033;-50
2021/10/07 03:53:13;;;;;;;2.80;2.50;;;8.40;62.00;;;;;;5032359;28;20021;-50
2021/10/07 03:55:39;;;;;;;4.28;3.35;;;8.40;62.00;;;;;;5026551;28;20029;-50
2021/10/07 03:58:04;;;;;;;3.55;3.20;;;8.40;61.80;;;;;;5014298;28;20030;-50
2021/10/07 04:00:30;;;;;;;3.25;2.63;;;8.40;61.70;;;;;;5022329;28;20025;-51
2021/10/07 04:02:57;;;;;;;5.20;3.63;;;8.30;61.90;;;;;;5033969;28;20033;-51
2021/10/07 04:05:24;;;;;;;3.78;2.85;;;8.30;62.20;;;;;;5033954;28;20489;-52
2021/10/07 04:07:50;;;;;;;4.13;2.90;;;8.30;62.20;;;;;;5033916;28;20030;-50
2021/10/07 04:10:15;;;;;;;4.47;2.90;;;8.30;62.20;;;;;;5033801;28;20018;-50
2021/10/07 04:12:41;;;;;;;3.25;2.95;;;8.20;62.10;;;;;;5032094;28;20037;-51
2021/10/07 04:15:07;;;;;;;3.72;3.08;;;8.20;62.10;;;;;;5031104;28;20029;-50
2021/10/07 04:17:33;;;;;;;4.47;2.97;;;8.20;62.00;;;;;;5031845;28;20028;-51
2021/10/07 04:19:59;;;;;;;4.03;3.20;;;8.20;62.00;;;;;;5031798;28;20108;-50
2021/10/07 04:22:24;;;;;;;4.65;2.95;;;8.20;62.00;;;;;;5030877;28;20038;-50
2021/10/07 04:24:50;;;;;;;3.63;2.75;;;8.20;62.00;;;;;;5031415;28;20037;-50
2021/10/07 04:27:16;;;;;;;3.60;3.10;;;8.20;62.10;;;;;;5032290;28;20100;-49
2021/10/07 04:29:43;;;;;;;3.50;2.80;;;8.20;62.00;;;;;;5032419;28;20068;-52
2021/10/07 04:32:09;;;;;;;2.97;2.67;;;8.20;61.90;;;;;;5018314;28;20038;-50
2021/10/07 04:34:34;;;;;;;4.82;2.92;;;8.10;61.80;;;;;;5013678;28;20030;-53
2021/10/07 04:37:00;;;;;;;6.65;2.90;;;8.10;62.00;;;;;;5013491;28;20079;-50
2021/10/07 04:39:26;;;;;;;5.35;3.10;;;8.20;62.20;;;;;;5015901;28;20053;-50
2021/10/07 04:41:52;;;;;;;4.55;3.10;;;8.20;62.00;;;;;;5032836;28;20496;-50
2021/10/07 04:44:18;;;;;;;4.97;3.30;;;8.20;62.10;;;;;;5032292;28;20390;-51
2021/10/07 04:46:43;;;;;;;5.72;2.95;;;8.30;62.10;;;;;;5022015;28;20029;-50
2021/10/07 04:49:09;;;;;;;3.33;2.92;;;8.30;61.90;;;;;;5013549;28;20034;-50
2021/10/07 04:51:35;;;;;;;4.53;2.92;;;8.40;62.10;;;;;;5013702;28;20026;-50
2021/10/07 04:54:00;;;;;;;6.53;3.25;;;8.40;62.00;;;;;;5023533;28;20034;-51
2021/10/07 04:56:26;;;;;;;3.30;3.00;;;8.40;61.90;;;;;;5032541;28;20029;-50
2021/10/07 04:58:54;;;;;;;4.43;3.13;;;8.40;61.60;;;;;;5033184;28;20025;-51
2021/10/07 05:01:20;;;;;;;6.43;3.00;;;8.40;61.50;;;;;;5028435;28;20038;-50
2021/10/07 05:03:46;;;;;;;4.65;3.13;;;8.50;61.50;;;;;;5018722;28;20104;-51
2021/10/07 05:06:12;;;;;;;3.97;2.90;;;8.50;61.50;;;;;;5030639;28;20037;-51
2021/10/07 05:08:37;;;;;;;4.45;3.03;;;8.50;61.30;;;;;;5027730;28;20017;-50
2021/10/07 05:11:05;;;;;;;3.40;3.10;;;8.50;61.30;;;;;;5022346;28;20025;-50
2021/10/07 05:13:31;;;;;;;3.80;3.00;;;8.50;61.10;;;;;;5029194;28;20103;-50
2021/10/07 05:15:56;;;;;;;3.70;2.83;;;8.50;61.40;;;;;;5030908;28;20037;-49
2021/10/07 05:18:22;;;;;;;4.75;2.95;;;8.50;61.40;;;;;;5031360;28;20473;-49
2021/10/07 05:20:50;;;;;;;4.45;3.20;;;8.50;61.20;;;;;;5022728;28;20033;-50
2021/10/07 05:23:16;;;;;;;5.13;3.30;;;8.50;61.20;;;;;;5028528;28;20523;-50
2021/10/07 05:25:42;;;;;;;3.85;2.80;;;8.50;61.00;;;;;;5025067;28;20030;-51
2021/10/07 05:28:07;;;;;;;4.85;3.03;;;8.50;60.90;;;;;;5018888;28;20359;-51
2021/10/07 05:30:33;;;;;;;2.88;2.58;;;8.60;60.90;;;;;;5017116;28;20032;-52
2021/10/07 05:32:59;;;;;;;6.07;3.17;;;8.60;60.80;;;;;;5021867;28;20033;-51
2021/10/07 05:35:24;;;;;;;3.67;2.70;;;8.60;61.20;;;;;;5039664;28;21857;-51
2021/10/07 05:37:50;;;;;;;3.50;3.20;;;8.60;61.20;;;;;;5031121;28;20060;-51
2021/10/07 05:40:16;;;;;;;3.85;3.15;;;8.60;61.10;;;;;;5029926;28;20140;-53
2021/10/07 05:42:42;;;;;;;4.07;2.95;;;8.60;60.90;;;;;;5027400;28;20037;-52
2021/10/07 05:45:10;;;;;;;4.45;3.00;;;8.60;60.60;;;;;;5027657;28;20029;-53
2021/10/07 05:47:37;;;;;;;3.53;2.78;;;8.60;60.80;;;;;;5019994;28;20037;-53
2021/10/07 05:50:04;;;;;;;6.30;3.03;;;8.50;60.70;;;;;;5020272;28;20029;-52
2021/10/07 05:52:30;;;;;;;4.05;3.08;;;8.60;60.70;;;;;;5021513;28;20026;-54
2021/10/07 05:54:55;;;;;;;3.72;3.30;;;8.60;60.70;;;;;;5022448;28;20033;-52
2021/10/07 05:57:21;;;;;;;3.78;2.83;;;8.70;61.00;;;;;;5019307;28;20030;-50
2021/10/07 05:59:47;;;;;;;4.05;2.90;;;8.80;60.70;;;;;;5015413;28;20112;-53
2021/10/07 06:02:12;;;;;;;4.78;3.00;;;8.90;60.70;;;;;;5019491;28;23201;-51
2021/10/07 06:04:38;;;;;;;4.07;3.05;;;9.00;60.50;;;;;;5020565;28;20041;-51
2021/10/07 06:07:04;;;;;;;4.40;3.10;;;9.10;60.50;;;;;;5023909;28;20037;-50
2021/10/07 06:09:29;;;;;;;4.80;2.90;;;9.30;59.90;;;;;;5022267;28;20133;-51
2021/10/07 06:11:55;;;;;;;4.70;2.80;;;9.30;59.90;;;;;;5022151;28;20481;-51
2021/10/07 06:14:23;;;;;;;3.88;3.20;;;9.40;59.80;;;;;;5019034;28;20068;-52
2021/10/07 06:16:52;;;;;;;3.05;2.75;;;9.40;59.80;;;;;;5015738;28;20681;-54
2021/10/07 06:19:19;;;;;;;3.20;2.70;;;9.40;59.90;;;;;;5017950;28;20026;-54
2021/10/07 06:21:45;;;;;;;3.95;2.65;;;9.40;59.90;;;;;;5023760;28;20542;-52
2021/10/07 06:24:11;;;;;;;4.90;3.20;;;9.40;60.10;;;;;;5016307;28;20029;-54
2021/10/07 06:26:38;;;;;;;5.13;3.53;;;9.40;60.00;;;;;;5019608;28;20113;-54
2021/10/07 06:29:03;;;;;;;3.67;2.70;;;9.40;60.00;;;;;;5019084;28;20154;-51
2021/10/07 06:31:29;;;;;;;4.43;3.13;;;9.50;59.80;;;;;;5021309;28;20585;-51
2021/10/07 06:33:55;;;;;;;3.47;2.50;;;9.50;59.70;;;;;;5015230;28;20785;-52
2021/10/07 06:36:20;;;;;;;3.33;2.55;;;9.50;59.70;;;;;;5017284;28;20084;-52
2021/10/07 06:38:46;;;;;;;3.78;2.88;;;9.50;59.70;;;;;;5013719;28;20046;-51
2021/10/07 06:41:12;;;;;;;5.57;2.90;;;9.50;59.40;;;;;;5016817;28;20400;-53
2021/10/07 06:43:37;;;;;;;4.70;2.90;;;9.60;59.90;;;;;;5016524;28;20030;-53
2021/10/07 06:46:03;;;;;;;5.70;2.90;;;9.60;59.40;;;;;;5015773;28;20025;-51
2021/10/07 06:48:30;;;;;;;3.83;2.83;;;9.60;59.10;;;;;;5017431;28;20044;-53
2021/10/07 06:50:56;;;;;;;4.50;2.90;;;9.60;59.00;;;;;;5013192;28;21768;-53
2021/10/07 06:53:22;;;;;;;3.40;2.70;;;9.70;59.30;;;;;;5022666;28;20128;-53
2021/10/07 06:55:47;;;;;;;4.38;2.70;;;9.70;59.00;;;;;;5020606;28;20038;-54
2021/10/07 06:58:13;;;;;;;4.82;2.72;;;9.70;58.80;;;;;;5017982;28;20042;-54
2021/10/07 07:00:40;;;;;;;4.97;2.60;;;9.70;58.60;;;;;;5012403;28;20033;-52
2021/10/07 07:03:06;;;;;;;3.50;2.70;;;9.80;58.60;;;;;;4986396;28;20061;-52
2021/10/07 07:05:32;;;;;;;3.65;2.33;;;9.80;58.10;;;;;;5003639;28;20385;-54
2021/10/07 07:07:57;;;;;;;3.72;2.60;;;9.80;58.00;;;;;;5009661;28;20032;-51
2021/10/07 07:10:23;;;;;;;7.60;2.72;;;9.80;58.00;;;;;;5008959;28;20056;-52
2021/10/07 07:12:51;;;;;;;2.60;2.40;;;9.80;57.90;;;;;;5008352;28;20030;-52
2021/10/07 07:15:18;;;;;;;3.85;2.80;;;9.80;57.90;;;;;;5008693;28;20040;-54
2021/10/07 07:17:44;;;;;;;3.17;2.38;;;9.80;57.80;;;;;;5014734;28;20040;-54
2021/10/07 07:20:10;;;;;;;3.08;2.35;;;9.80;57.80;;;;;;5007691;28;20037;-51
2021/10/07 07:22:37;;;;;;;3.40;2.50;;;9.90;57.70;;;;;;5008958;28;20844;-52
2021/10/07 07:25:04;;;;;;;3.38;2.50;;;9.80;57.80;;;;;;5016346;28;20025;-52
2021/10/07 07:27:30;;;;;;;2.97;2.30;;;9.90;57.80;;;;;;5009851;28;20759;-53
2021/10/07 07:29:56;;;;;;;6.43;2.50;;;9.90;57.70;;;;;;5013653;28;20121;-54
2021/10/07 07:32:21;;;;;;;2.55;2.35;;;9.90;57.50;;;;;;5011376;28;21416;-54
2021/10/07 07:34:47;;;;;;;5.53;2.55;;;10.00;57.50;;;;;;5011562;28;20034;-53
2021/10/07 07:37:14;;;;;;;2.50;2.30;;;10.00;57.40;;;;;;5011460;28;20504;-53
2021/10/07 07:39:40;;;;;;;3.15;2.40;;;10.00;57.10;;;;;;5009375;28;20053;-51
2021/10/07 07:42:06;;;;;;;4.43;2.40;;;10.10;57.00;;;;;;5007571;28;20502;-53
2021/10/07 07:44:31;;;;;;;4.32;2.47;;;10.10;57.00;;;;;;5008666;28;20034;-53
2021/10/07 07:46:57;;;;;;;4.28;2.75;;;10.10;57.10;;;;;;5003450;28;20029;-52
2021/10/07 07:49:23;;;;;;;3.80;2.40;;;10.20;57.00;;;;;;5005003;28;20036;-54
2021/10/07 07:51:50;;;;;;;3.22;2.30;;;10.20;57.00;;;;;;5012160;28;20029;-54
2021/10/07 07:54:15;;;;;;;4.00;2.40;;;10.30;56.90;;;;;;5012199;28;20042;-54
2021/10/07 07:56:41;;;;;;;3.30;2.50;;;10.30;56.20;;;;;;4997563;28;20456;-53
2021/10/07 07:59:08;;;;;;;3.15;2.38;;;10.40;56.20;;;;;;5007756;28;20032;-54
2021/10/07 08:01:36;;;;;;;5.40;2.75;;;10.40;55.90;;;;;;5008810;28;20041;-51
2021/10/07 08:04:06;;;;;;;3.53;2.45;;;10.50;55.80;;;;;;5009836;28;20582;-54
2021/10/07 08:06:32;;;;;;;3.58;2.42;;;10.50;55.60;;;;;;5004976;28;20025;-54
2021/10/07 08:08:59;;;;;;;2.78;2.25;;;10.50;55.60;;;;;;5007037;28;20030;-51
2021/10/07 08:11:24;;;;;;;2.80;2.60;;;10.50;55.50;;;;;;5006684;28;20107;-54
2021/10/07 08:13:50;;;;;;;5.78;2.72;;;10.60;55.10;;;;;;5002675;28;20029;-52
2021/10/07 08:16:16;;;;;;;4.43;2.50;;;10.60;54.70;;;;;;5007632;28;20048;-52
2021/10/07 08:18:42;;;;;;;4.03;2.47;;;10.60;54.80;;;;;;5012454;28;20045;-53
2021/10/07 08:21:08;;;;;;;3.72;2.60;;;10.60;55.00;;;;;;4998606;28;20033;-54
2021/10/07 08:23:36;;;;;;;3.72;2.45;;;10.70;55.10;;;;;;5007016;28;20579;-54
2021/10/07 08:26:02;;;;;;;5.03;2.67;;;10.70;54.50;;;;;;5008756;28;20113;-54
2021/10/07 08:28:28;;;;;;;4.03;2.65;;;10.70;54.50;;;;;;5011050;28;20400;-54
2021/10/07 08:30:53;;;;;;;4.65;2.53;;;10.80;54.60;;;;;;5007422;28;20032;-53
2021/10/07 08:33:19;;;;;;;4.43;2.50;;;10.80;54.10;;;;;;5007439;28;20044;-52
2021/10/07 08:35:48;;;;;;;3.53;2.15;;;10.80;54.10;;;;;;5005968;28;20025;-53
2021/10/07 08:38:15;;;;;;;3.85;2.40;;;10.80;54.20;;;;;;5005158;28;20539;-55
2021/10/07 08:40:41;;;;;;;3.85;2.40;;;10.90;54.00;;;;;;5009416;28;20064;-55
2021/10/07 08:43:07;;;;;;;4.93;2.53;;;10.90;54.10;;;;;;4984772;28;20049;-54
2021/10/07 08:45:32;;;;;;;4.15;2.60;;;11.00;54.10;;;;;;5009232;28;20034;-54
2021/10/07 08:47:58;;;;;;;10.13;3.33;;;11.00;53.60;;;;;;5010358;28;20037;-52
2021/10/07 08:50:24;;;;;;;4.68;2.80;;;11.00;52.80;;;;;;5010130;28;20037;-51
2021/10/07 08:52:51;;;;;;;4.75;2.92;;;11.00;52.60;;;;;;5005754;28;20124;-51
2021/10/07 08:55:17;;;;;;;5.63;3.38;;;11.00;52.60;;;;;;5001983;28;20058;-52
2021/10/07 08:57:44;;;;;;;9.13;3.90;;;11.00;51.90;;;;;;5005728;28;20510;-52
2021/10/07 09:00:12;;;;;;;8.70;3.17;;;11.00;51.90;;;;;;5001206;28;20030;-51
2021/10/07 09:02:38;;;;;;;4.47;3.28;;;11.00;51.50;;;;;;5012246;28;20034;-51
2021/10/07 09:05:18;;;;;;;4.78;2.58;;;11.00;51.90;;;;;;5006124;28;20033;-54
2021/10/07 09:08:04;;;;;;;2.60;2.10;;;11.00;52.50;;;;;;5003866;28;20661;-54
2021/10/07 09:10:47;;;;;;;3.90;2.30;;;11.10;52.40;;;;;;5004118;28;20164;-51
2021/10/07 09:13:20;;;;;;;2.25;2.03;;;11.10;52.40;;;;;;5002083;28;20037;-54
2021/10/07 09:15:50;;;;;;;5.25;2.33;;;11.10;52.20;;;;;;5008950;28;20108;-51
2021/10/07 09:18:18;;;;;;;2.30;2.17;;;11.10;52.00;;;;;;5003306;28;20029;-54
2021/10/07 09:20:48;;;;;;;2.90;2.05;;;11.10;51.90;;;;;;5003853;28;20489;-54
2021/10/07 09:23:24;;;;;;;4.00;1.85;;;11.10;51.60;;;;;;5003425;28;21233;-53
2021/10/07 09:26:03;;;;;;;3.90;2.40;;;11.10;51.70;;;;;;5008622;28;20060;-54
2021/10/07 09:28:51;;;;;;;2.65;1.95;;;11.20;52.10;;;;;;5007006;28;20052;-54
2021/10/07 09:31:27;;;;;;;4.93;2.38;;;11.20;51.90;;;;;;5008942;28;20038;-52
2021/10/07 09:33:58;;;;;;;3.83;1.83;;;11.20;51.90;;;;;;5004701;28;20631;-54
2021/10/07 09:36:24;;;;;;;2.13;2.03;;;11.20;51.50;;;;;;5007242;28;20164;-53
2021/10/07 09:38:52;;;;;;;2.03;1.88;;;11.30;51.30;;;;;;5007332;28;20775;-51
2021/10/07 09:41:22;;;;;;;2.50;2.30;;;11.30;51.10;;;;;;5009523;28;20055;-54
2021/10/07 09:43:53;;;;;;;4.82;2.25;;;11.30;51.40;;;;;;5009665;28;20091;-54
2021/10/07 09:46:48;;;;;;;2.38;1.75;;;11.30;51.50;;;;;;5011660;28;20036;-54
2021/10/07 09:49:20;;;;;;;2.72;2.25;;;11.30;51.40;;;;;;5007721;28;20052;-53
2021/10/07 09:51:53;;;;;;;4.28;2.00;;;11.30;51.30;;;;;;5009395;28;20029;-51
2021/10/07 09:54:24;;;;;;;4.60;2.05;;;11.40;51.50;;;;;;5007151;28;20028;-54
2021/10/07 09:57:02;;;;;;;3.55;2.25;;;11.40;51.10;;;;;;5005495;28;20037;-55
2021/10/07 09:59:31;;;;;;;7.32;2.10;;;11.40;50.80;;;;;;5006898;28;20066;-52
2021/10/07 10:01:58;;;;;;;2.00;1.80;;;11.40;50.40;;;;;;4999370;28;20051;-52
2021/10/07 10:04:26;;;;;;;3.28;1.88;;;11.40;50.60;;;;;;5005367;28;20374;-54
2021/10/07 10:06:51;;;;;;;4.82;2.17;;;11.40;50.50;;;;;;4999248;28;20044;-54
2021/10/07 10:09:25;;;;;;;5.00;2.25;;;11.50;50.40;;;;;;4998468;28;20686;-51
2021/10/07 10:11:51;;;;;;;2.05;1.83;;;11.50;50.10;;;;;;5008621;28;20060;-54
2021/10/07 10:14:20;;;;;;;4.60;1.95;;;11.50;49.70;;;;;;5004427;28;20030;-52
2021/10/07 10:16:46;;;;;;;3.63;2.05;;;11.60;49.00;;;;;;5010299;28;20044;-54
2021/10/07 10:19:13;;;;;;;7.97;2.17;;;11.60;48.60;;;;;;5009242;28;20049;-54
2021/10/07 10:21:40;;;;;;;6.57;2.22;;;11.60;49.30;;;;;;5015232;28;20109;-51
2021/10/07 10:24:08;;;;;;;4.68;2.55;;;11.60;49.60;;;;;;5013584;28;20107;-52
2021/10/07 10:26:38;;;;;;;3.13;2.50;;;11.60;49.60;;;;;;5014118;28;20469;-54
2021/10/07 10:29:21;;;;;;;6.30;2.72;;;11.60;49.70;;;;;;5012754;28;20036;-53
2021/10/07 10:31:51;;;;;;;7.80;2.60;;;11.60;49.70;;;;;;5015516;28;20038;-54
2021/10/07 10:34:18;;;;;;;5.57;2.50;;;11.60;49.90;;;;;;5009218;28;20744;-54
2021/10/07 10:37:00;;;;;;;6.63;2.58;;;11.60;50.40;;;;;;5008446;28;20033;-52
2021/10/07 10:39:35;;;;;;;4.82;2.30;;;11.60;49.60;;;;;;5013560;28;20057;-51
2021/10/07 10:42:05;;;;;;;3.90;2.42;;;11.50;49.80;;;;;;5018177;28;20053;-54
2021/10/07 10:44:41;;;;;;;4.80;1.92;;;11.50;50.00;;;;;;5020678;28;20038;-54
2021/10/07 10:47:07;;;;;;;4.82;2.40;;;11.60;49.80;;;;;;5017883;28;20539;-53
2021/10/07 10:49:40;;;;;;;3.55;1.90;;;11.60;49.80;;;;;;5017730;28;20037;-54
2021/10/07 10:52:27;;;;;;;4.45;2.22;;;11.60;49.30;;;;;;5014658;28;20044;-52
2021/10/07 10:55:18;;;;;;;2.10;1.83;;;11.60;49.40;;;;;;5013141;28;20084;-54
2021/10/07 10:57:49;;;;;;;3.05;2.08;;;11.60;48.90;;;;;;5012615;28;20068;-55
2021/10/07 11:00:30;;;;;;;4.25;1.95;;;11.60;49.00;;;;;;5011533;28;20040;-54
2021/10/07 11:03:08;;;;;;;5.30;1.85;;;11.70;48.60;;;;;;5009666;28;20162;-54
2021/10/07 11:05:41;;;;;;;6.15;2.38;;;11.70;48.30;;;;;;5011830;28;20137;-52
2021/10/07 11:08:09;;;;;;;3.13;1.90;;;11.70;48.40;;;;;;5012726;28;20026;-53
2021/10/07 11:10:46;;;;;;;2.70;1.80;;;11.70;48.70;;;;;;5009011;28;20026;-54
2021/10/07 11:13:20;;;;;;;4.20;2.20;;;11.70;48.40;;;;;;5006775;28;20030;-54
2021/10/07 11:15:57;;;;;;;2.58;1.80;;;11.80;48.30;;;;;;5007649;28;20033;-54
2021/10/07 11:18:26;;;;;;;2.30;1.90;;;11.80;48.60;;;;;;5006502;28;20037;-53
2021/10/07 11:20:57;;;;;;;1.95;1.85;;;11.90;48.40;;;;;;4992285;28;20153;-54
2021/10/07 11:23:23;;;;;;;2.35;1.67;;;11.90;48.60;;;;;;5005168;28;20033;-55
2021/10/07 11:25:57;;;;;;;3.63;1.98;;;12.00;48.80;;;;;;5007033;28;20049;-54
2021/10/07 11:28:41;;;;;;;1.77;1.67;;;12.00;48.50;;;;;;5005158;28;20071;-54
2021/10/07 11:31:13;;;;;;;4.35;1.90;;;12.10;48.00;;;;;;5008853;28;20061;-51
2021/10/07 11:33:51;;;;;;;3.83;1.80;;;12.20;47.90;;;;;;5009993;28;20525;-54
2021/10/07 11:36:23;;;;;;;1.60;1.50;;;12.20;47.90;;;;;;5009462;28;20044;-53
2021/10/07 11:38:51;;;;;;;2.20;1.55;;;12.30;48.00;;;;;;5013513;28;20139;-53
2021/10/07 11:41:20;;;;;;;4.85;1.67;;;12.40;48.10;;;;;;5011993;28;20040;-53
2021/10/07 11:43:47;;;;;;;1.80;1.70;;;12.50;47.80;;;;;;5012223;28;20052;-52
2021/10/07 11:46:17;;;;;;;2.25;1.80;;;12.50;48.10;;;;;;5004405;28;20053;-51
2021/10/07 11:48:48;;;;;;;3.28;1.83;;;12.60;47.80;;;;;;5010312;28;20041;-54
2021/10/07 11:51:19;;;;;;;2.25;1.75;;;12.60;48.10;;;;;;5006173;28;20580;-54
2021/10/07 11:53:46;;;;;;;2.63;2.05;;;12.70;48.20;;;;;;5006819;28;20045;-55
2021/10/07 11:56:18;;;;;;;2.63;1.77;;;12.80;48.10;;;;;;5008907;28;20044;-54
2021/10/07 11:58:50;;;;;;;;;;;12.80;47.90;;;;;;5009792;28;20037;-55
2021/10/07 12:01:17;;;;;;;2.05;1.80;;;12.80;48.10;;;;;;5008511;28;19919;-53
2021/10/07 12:03:42;;;;;;;3.45;1.85;;;12.80;48.40;;;;;;5009412;28;20052;-53
2021/10/07 12:06:13;;;;;;;6.95;2.28;;;12.80;48.00;;;;;;5008625;28;20544;-51
2021/10/07 12:08:44;;;;;;;3.38;2.03;;;12.80;47.80;;;;;;5008871;28;20029;-54
2021/10/07 12:11:17;;;;;;;3.72;2.40;;;12.70;47.90;;;;;;5010388;28;20122;-53
2021/10/07 12:13:49;;;;;;;4.40;2.20;;;12.60;48.00;;;;;;5013019;28;20030;-52
2021/10/07 12:16:45;;;;;;;2.85;1.80;;;12.60;48.00;;;;;;4990051;28;20037;-51
2021/10/07 12:19:14;;;;;;;2.20;2.00;;;12.60;48.20;;;;;;5000507;28;21023;-51
2021/10/07 12:21:41;;;;;;;3.95;2.30;;;12.50;48.10;;;;;;5004346;28;20069;-53
2021/10/07 12:24:15;;;;;;;2.33;1.88;;;12.50;47.60;;;;;;5002467;28;20060;-54
2021/10/07 12:26:52;;;;;;;2.60;2.17;;;12.50;47.60;;;;;;5006601;28;20044;-52
2021/10/07 12:29:28;;;;;;;4.40;1.98;;;12.50;47.70;;;;;;5006240;28;20083;-53
2021/10/07 12:32:04;;;;;;;3.33;2.17;;;12.50;47.80;;;;;;5006517;28;20030;-53
2021/10/07 12:34:30;;;;;;;2.45;1.90;;;12.50;47.90;;;;;;5007271;28;20033;-54
2021/10/07 12:36:59;;;;;;;3.05;1.90;;;12.50;48.00;;;;;;5005454;28;20069;-52
2021/10/07 12:39:29;;;;;;;2.53;1.65;;;12.50;47.50;;;;;;5006842;28;20053;-52
2021/10/07 12:41:57;;;;;;;2.33;1.92;;;12.50;47.80;;;;;;5007041;28;20041;-54
2021/10/07 12:44:28;;;;;;;3.40;1.80;;;12.50;47.90;;;;;;4999123;28;20508;-55
2021/10/07 12:46:59;;;;;;;2.45;1.85;;;12.50;47.70;;;;;;5004333;28;20446;-54
2021/10/07 12:49:39;;;;;;;2.45;2.25;;;12.50;47.70;;;;;;5004279;28;20576;-52
2021/10/07 12:52:41;;;;;;;2.65;1.90;;;12.50;47.90;;;;;;5006955;28;20092;-53
2021/10/07 12:55:16;;;;;;;2.70;1.90;;;12.40;47.80;;;;;;5004414;28;20582;-54
2021/10/07 12:57:45;;;;;;;3.33;1.90;;;12.50;47.80;;;;;;5003747;28;20140;-53
2021/10/07 13:00:36;;;;;;;1.80;1.70;;;12.50;47.70;;;;;;5001211;28;20164;-54